createdAt,value
2019-02-04T00:02:11.109Z,90.03
2019-02-04T00:04:40.667Z,90.27
2019-02-04T00:07:10.742Z,90.36
2019-02-04T00:09:39.682Z,89.88
2019-02-04T00:12:09.249Z,89.72
2019-02-04T00:14:39.553Z,89.44
2019-02-04T00:17:08.773Z,89.98
2019-02-04T00:19:37.977Z,90.30
2019-02-04T00:22:07.353Z,90.12
2019-02-04T00:24:36.178Z,90.97
2019-02-04T00:27:05.338Z,91.31
2019-02-04T00:29:34.741Z,91.50
2019-02-04T00:32:04.493Z,92.46
2019-02-04T00:34:34.239Z,92.60
2019-02-04T00:37:05.996Z,92.35
2019-02-04T00:39:35.677Z,91.98
2019-02-04T00:42:07.059Z,91.50
2019-02-04T00:44:36.072Z,91.22
2019-02-04T00:47:04.946Z,91.04
2019-02-04T00:49:35.079Z,91.09
2019-02-04T00:52:05.893Z,90.97
2019-02-04T00:54:36.724Z,91.63
2019-02-04T00:57:07.333Z,91.30
2019-02-04T00:59:44.908Z,91.07
2019-02-04T01:02:56.572Z,91.50
2019-02-04T01:05:25.977Z,91.53
2019-02-04T01:07:57.441Z,91.35
2019-02-04T01:10:29.479Z,91.53
2019-02-04T01:12:58.871Z,91.29
2019-02-04T01:15:41.482Z,91.41
2019-02-04T01:18:11.826Z,91.36
2019-02-04T01:20:41.667Z,91.12
2019-02-04T01:23:10.587Z,91.16
2019-02-04T01:25:39.780Z,91.58
2019-02-04T01:28:09.062Z,91.54
2019-02-04T01:30:37.915Z,91.98
2019-02-04T01:33:07.000Z,92.36
2019-02-04T01:35:40.005Z,92.12
2019-02-04T01:38:10.195Z,91.76
2019-02-04T01:40:39.505Z,91.25
2019-02-04T01:43:09.999Z,90.95
2019-02-04T01:45:38.911Z,90.52
2019-02-04T01:48:08.068Z,90.67
2019-02-04T01:50:36.942Z,90.89
2019-02-04T01:53:07.780Z,91.06
2019-02-04T01:55:36.724Z,91.03
2019-02-04T01:58:13.069Z,91.07
2019-02-04T02:00:42.158Z,91.64
2019-02-04T02:03:11.283Z,91.76
2019-02-04T02:05:40.722Z,91.72
2019-02-04T02:08:09.650Z,91.65
2019-02-04T02:10:39.166Z,91.65
2019-02-04T02:13:10.657Z,91.79
2019-02-04T02:15:40.327Z,91.81
2019-02-04T02:18:09.850Z,92.04
2019-02-04T02:20:38.723Z,91.95
2019-02-04T02:23:12.580Z,91.77
2019-02-04T02:25:42.701Z,91.60
2019-02-04T02:28:11.959Z,91.43
2019-02-04T02:30:40.950Z,91.27
2019-02-04T02:33:10.252Z,91.32
2019-02-04T02:35:40.257Z,91.41
2019-02-04T02:38:09.780Z,91.09
2019-02-04T02:40:39.695Z,91.19
2019-02-04T02:43:11.586Z,91.17
2019-02-04T02:45:39.560Z,91.30
2019-02-04T02:48:10.317Z,91.59
2019-02-04T02:50:40.970Z,91.35
2019-02-04T02:53:10.484Z,92.01
2019-02-04T02:55:39.811Z,91.53
2019-02-04T02:58:08.803Z,90.66
2019-02-04T03:00:37.701Z,90.58
2019-02-04T03:03:06.714Z,90.35
2019-02-04T03:05:35.569Z,90.17
2019-02-04T03:08:07.627Z,90.18
2019-02-04T03:10:38.512Z,90.47
2019-02-04T03:13:09.494Z,91.05
2019-02-04T03:15:38.804Z,90.70
2019-02-04T03:18:08.108Z,90.59
2019-02-04T03:20:37.136Z,90.61
2019-02-04T03:23:07.232Z,91.12
2019-02-04T03:25:41.038Z,90.94
2019-02-04T03:28:12.583Z,90.65
2019-02-04T03:30:41.930Z,90.42
2019-02-04T03:33:14.694Z,90.16
2019-02-04T03:35:45.400Z,90.26
2019-02-04T03:38:14.749Z,90.21
2019-02-04T03:40:44.036Z,90.13
2019-02-04T03:43:13.329Z,90.71
2019-02-04T03:45:44.629Z,91.13
2019-02-04T03:48:13.849Z,91.24
2019-02-04T03:50:43.967Z,90.98
2019-02-04T03:53:13.121Z,90.49
2019-02-04T03:55:42.379Z,90.22
2019-02-04T03:58:13.434Z,90.28
2019-02-04T04:00:42.606Z,90.58
2019-02-04T04:03:12.885Z,90.53
2019-02-04T04:05:42.205Z,90.52
2019-02-04T04:08:11.156Z,90.46
2019-02-04T04:10:41.767Z,90.54
2019-02-04T04:13:11.500Z,91.07
2019-02-04T04:15:41.409Z,91.71
2019-02-04T04:18:15.861Z,92.70
2019-02-04T04:20:44.992Z,92.43
2019-02-04T04:23:14.219Z,91.80
2019-02-04T04:25:44.221Z,90.29
2019-02-04T04:28:13.101Z,89.40
2019-02-04T04:30:42.036Z,89.13
2019-02-04T04:33:10.981Z,89.03
2019-02-04T04:35:40.345Z,88.92
2019-02-04T04:38:12.188Z,88.61
2019-02-04T04:40:41.517Z,88.70
2019-02-04T04:43:11.291Z,88.71
2019-02-04T04:45:41.431Z,88.51
2019-02-04T04:48:12.039Z,88.26
2019-02-04T04:50:41.536Z,87.91
2019-02-04T04:53:10.900Z,87.91
2019-02-04T04:55:40.381Z,87.35
2019-02-04T04:58:09.850Z,87.09
2019-02-04T05:00:39.674Z,86.77
2019-02-04T05:03:11.195Z,86.49
2019-02-04T05:05:41.284Z,86.09
2019-02-04T05:08:10.484Z,86.28
2019-02-04T05:10:40.048Z,86.29
2019-02-04T05:13:08.943Z,85.63
2019-02-04T05:15:37.735Z,85.52
2019-02-04T05:18:07.157Z,85.36
2019-02-04T05:20:36.414Z,85.80
2019-02-04T05:23:05.376Z,85.34
2019-02-04T05:25:35.461Z,85.65
2019-02-04T05:28:06.680Z,85.73
2019-02-04T05:30:39.071Z,85.63
2019-02-04T05:33:08.169Z,86.43
2019-02-04T05:35:39.906Z,86.39
2019-02-04T05:38:10.655Z,86.75
2019-02-04T05:40:40.017Z,87.15
2019-02-04T05:43:09.348Z,87.48
2019-02-04T05:45:38.728Z,86.76
2019-02-04T05:48:08.843Z,86.61
2019-02-04T05:50:38.354Z,86.32
2019-02-04T05:53:08.684Z,85.95
2019-02-04T05:55:37.922Z,85.59
2019-02-04T05:58:08.419Z,85.63
2019-02-04T06:00:40.475Z,85.88
2019-02-04T06:03:09.503Z,85.89
2019-02-04T06:05:38.977Z,85.89
2019-02-04T06:08:08.022Z,85.85
2019-02-04T06:10:37.859Z,85.56
2019-02-04T06:13:09.528Z,85.94
2019-02-04T06:15:38.893Z,86.03
2019-02-04T06:18:12.376Z,85.25
2019-02-04T06:20:40.507Z,85.03
2019-02-04T06:23:09.454Z,84.91
2019-02-04T06:25:38.444Z,84.99
2019-02-04T06:28:07.992Z,84.52
2019-02-04T06:30:39.806Z,84.70
2019-02-04T06:33:09.157Z,84.62
2019-02-04T06:35:38.406Z,84.50
2019-02-04T06:38:08.012Z,84.38
2019-02-04T06:40:38.159Z,84.19
2019-02-04T06:43:07.250Z,84.46
2019-02-04T06:45:38.253Z,84.28
2019-02-04T06:48:08.487Z,85.17
2019-02-04T06:50:37.467Z,85.56
2019-02-04T06:53:06.887Z,85.76
2019-02-04T06:55:48.279Z,85.95
2019-02-04T06:58:17.611Z,86.44
2019-02-04T07:00:47.219Z,85.64
2019-02-04T07:03:16.413Z,85.85
2019-02-04T07:05:47.162Z,85.01
2019-02-04T07:08:16.091Z,85.26
2019-02-04T07:10:45.043Z,84.47
2019-02-04T07:13:14.111Z,84.27
2019-02-04T07:15:43.809Z,83.94
2019-02-04T07:18:12.903Z,83.88
2019-02-04T07:20:41.924Z,83.69
2019-02-04T07:23:12.819Z,83.21
2019-02-04T07:25:42.767Z,83.42
2019-02-04T07:28:18.388Z,83.38
2019-02-04T07:30:49.865Z,83.32
2019-02-04T07:33:20.064Z,83.14
2019-02-04T07:35:50.028Z,83.36
2019-02-04T07:38:19.398Z,83.44
2019-02-04T07:40:49.122Z,82.97
2019-02-04T07:43:18.585Z,83.06
2019-02-04T07:45:54.820Z,83.04
2019-02-04T07:48:23.557Z,82.40
2019-02-04T07:50:52.279Z,82.33
2019-02-04T07:53:21.113Z,81.84
2019-02-04T07:55:50.157Z,81.66
2019-02-04T07:58:18.889Z,81.75
2019-02-04T08:00:47.605Z,81.68
2019-02-04T08:03:16.447Z,81.29
2019-02-04T08:05:45.317Z,81.41
2019-02-04T08:08:14.412Z,80.88
2019-02-04T08:10:43.401Z,80.32
2019-02-04T08:13:12.472Z,79.54
2019-02-04T08:15:41.313Z,79.56
2019-02-04T08:18:10.133Z,79.51
2019-02-04T08:20:39.922Z,79.28
2019-02-04T08:23:08.684Z,79.06
2019-02-04T08:25:37.719Z,79.22
2019-02-04T08:28:06.466Z,78.98
2019-02-04T08:30:38.170Z,78.70
2019-02-04T08:33:06.835Z,78.61
2019-02-04T08:35:35.834Z,78.00
2019-02-04T08:38:04.651Z,78.42
2019-02-04T08:40:33.893Z,78.32
2019-02-04T08:43:02.641Z,77.97
2019-02-04T08:45:31.408Z,77.80
2019-02-04T08:48:00.222Z,77.99
2019-02-04T08:50:28.974Z,77.16
2019-02-04T08:52:58.024Z,77.16
2019-02-04T08:55:26.780Z,77.48
2019-02-04T08:57:55.748Z,77.33
2019-02-04T09:00:24.602Z,76.99
2019-02-04T09:02:53.316Z,77.01
2019-02-04T09:05:22.018Z,76.41
2019-02-04T09:07:50.688Z,75.92
2019-02-04T09:10:28.057Z,75.75
2019-02-04T09:12:56.730Z,75.58
2019-02-04T09:15:25.522Z,75.70
2019-02-04T09:17:54.354Z,76.01
2019-02-04T09:20:24.657Z,75.56
2019-02-04T09:22:53.360Z,75.43
2019-02-04T09:25:22.609Z,75.46
2019-02-04T09:27:51.603Z,74.94
2019-02-04T09:30:21.702Z,74.87
2019-02-04T09:32:50.445Z,74.49
2019-02-04T09:35:19.911Z,74.51
2019-02-04T09:37:48.733Z,73.81
2019-02-04T09:40:31.783Z,74.12
2019-02-04T09:43:00.569Z,74.40
2019-02-04T09:45:29.254Z,73.02
2019-02-04T09:47:58.027Z,73.20
2019-02-04T09:50:27.318Z,73.66
2019-02-04T09:52:56.827Z,73.22
2019-02-04T09:55:28.163Z,72.03
2019-02-04T09:57:56.950Z,71.69
2019-02-04T10:00:27.451Z,71.66
2019-02-04T10:02:56.241Z,71.09
2019-02-04T10:05:24.954Z,71.14
2019-02-04T10:07:53.628Z,70.18
2019-02-04T10:10:24.200Z,70.53
2019-02-04T10:12:52.928Z,70.71
2019-02-04T10:15:24.986Z,70.61
2019-02-04T10:17:53.813Z,70.19
2019-02-04T10:20:33.040Z,70.52
2019-02-04T10:22:53.064Z,70.82
2019-02-04T10:25:23.722Z,70.06
2019-02-04T10:27:52.463Z,70.71
2019-02-04T10:30:22.181Z,69.84
2019-02-04T10:32:50.833Z,70.00
2019-02-04T10:35:19.738Z,69.14
2019-02-04T10:37:49.224Z,69.18
2019-02-04T10:40:19.856Z,69.33
2019-02-04T10:42:48.656Z,69.73
2019-02-04T10:45:17.838Z,69.62
2019-02-04T10:47:46.581Z,69.56
2019-02-04T10:50:17.943Z,68.85
2019-02-04T10:52:47.109Z,68.44
2019-02-04T10:55:15.991Z,68.46
2019-02-04T10:57:45.931Z,68.35
2019-02-04T11:00:17.088Z,67.36
2019-02-04T11:02:45.951Z,68.08
2019-02-04T11:05:17.325Z,67.42
2019-02-04T11:07:46.268Z,67.72
2019-02-04T11:10:15.683Z,67.33
2019-02-04T11:12:44.520Z,67.22
2019-02-04T11:15:13.997Z,66.29
2019-02-04T11:17:42.913Z,67.75
2019-02-04T11:20:18.179Z,66.81
2019-02-04T11:22:47.043Z,67.38
2019-02-04T11:25:15.866Z,67.18
2019-02-04T11:27:44.597Z,65.54
2019-02-04T11:30:17.808Z,65.66
2019-02-04T11:32:47.808Z,65.39
2019-02-04T11:35:16.645Z,66.26
2019-02-04T11:37:45.459Z,66.15
2019-02-04T11:40:16.163Z,66.64
2019-02-04T11:42:44.959Z,66.65
2019-02-04T11:45:13.765Z,66.51
2019-02-04T11:47:42.623Z,66.66
2019-02-04T11:50:11.561Z,66.17
2019-02-04T11:52:40.281Z,66.22
2019-02-04T11:55:09.871Z,66.42
2019-02-04T11:57:38.577Z,66.36
2019-02-04T12:00:09.617Z,65.85
2019-02-04T12:02:38.847Z,65.97
2019-02-04T12:05:09.493Z,65.94
2019-02-04T12:07:38.310Z,64.57
2019-02-04T12:10:09.040Z,65.27
2019-02-04T12:12:37.882Z,65.22
2019-02-04T12:15:10.172Z,65.12
2019-02-04T12:17:39.127Z,64.44
2019-02-04T12:20:09.388Z,64.77
2019-02-04T12:22:38.174Z,63.73
2019-02-04T12:25:08.744Z,64.74
2019-02-04T12:27:37.539Z,63.96
2019-02-04T12:30:07.536Z,63.56
2019-02-04T12:32:36.573Z,64.08
2019-02-04T12:35:06.536Z,63.28
2019-02-04T12:37:35.539Z,63.35
2019-02-04T12:40:04.814Z,63.00
2019-02-04T12:42:33.613Z,63.95
2019-02-04T12:45:02.373Z,62.74
2019-02-04T12:47:31.395Z,61.96
2019-02-04T12:50:00.353Z,61.48
2019-02-04T12:52:29.174Z,61.90
2019-02-04T12:54:58.053Z,61.36
2019-02-04T12:57:26.818Z,60.94
2019-02-04T12:59:55.625Z,60.96
2019-02-04T13:02:24.608Z,60.01
2019-02-04T13:04:53.666Z,60.75
2019-02-04T13:07:22.405Z,59.94
2019-02-04T13:09:51.533Z,61.55
2019-02-04T13:12:20.322Z,58.75
2019-02-04T13:14:49.045Z,58.96
2019-02-04T13:17:18.254Z,59.08
2019-02-04T13:19:47.315Z,57.96
2019-02-04T13:22:16.079Z,57.88
2019-02-04T13:24:44.910Z,58.48
2019-02-04T13:27:13.638Z,57.83
2019-02-04T13:29:42.488Z,57.02
2019-02-04T13:32:11.549Z,57.08
2019-02-04T13:34:40.315Z,57.66
2019-02-04T13:37:09.189Z,57.35
2019-02-04T13:39:37.946Z,57.05
2019-02-04T13:42:07.006Z,56.34
2019-02-04T13:44:36.162Z,57.05
2019-02-04T13:47:05.791Z,56.00
2019-02-04T13:49:34.637Z,57.03
2019-02-04T13:52:03.402Z,57.31
2019-02-04T13:54:32.224Z,57.07
2019-02-04T13:57:03.646Z,56.94
2019-02-04T13:59:31.431Z,57.51
2019-02-04T14:02:00.386Z,57.04
2019-02-04T14:04:29.170Z,57.75
2019-02-04T14:06:57.958Z,56.57
2019-02-04T14:09:26.848Z,56.86
2019-02-04T14:11:55.594Z,57.09
2019-02-04T14:14:24.327Z,58.04
2019-02-04T14:16:53.154Z,58.64
2019-02-04T14:19:21.838Z,58.46
2019-02-04T14:21:50.660Z,58.30
2019-02-04T14:24:19.416Z,58.24
2019-02-04T14:26:48.128Z,58.96
2019-02-04T14:29:17.285Z,58.77
2019-02-04T14:31:46.198Z,58.92
2019-02-04T14:34:15.215Z,58.95
2019-02-04T14:36:43.983Z,59.22
2019-02-04T14:39:14.965Z,60.07
2019-02-04T14:41:43.960Z,59.46
2019-02-04T14:44:38.372Z,59.13
2019-02-04T14:47:37.903Z,60.19
2019-02-04T14:50:40.216Z,60.17
2019-02-04T14:53:48.933Z,59.98
2019-02-04T14:56:43.776Z,60.45
2019-02-04T14:59:39.678Z,60.58
2019-02-04T15:02:41.341Z,61.17
2019-02-04T15:05:18.252Z,60.81
2019-02-04T15:08:32.914Z,61.08
2019-02-04T15:11:48.842Z,61.31
2019-02-04T15:14:44.732Z,60.68
2019-02-04T15:18:03.795Z,61.59
2019-02-04T15:21:14.594Z,61.24
2019-02-04T15:23:51.450Z,60.66
2019-02-04T15:26:38.223Z,61.46
2019-02-04T15:29:20.830Z,61.31
2019-02-04T15:32:21.903Z,61.27
2019-02-04T15:35:11.113Z,61.31
2019-02-04T15:38:24.480Z,61.09
2019-02-04T15:41:27.672Z,61.26
2019-02-04T15:44:34.493Z,61.45
2019-02-04T15:47:48.697Z,61.11
2019-02-04T15:51:29.136Z,61.58
2019-02-04T15:53:59.973Z,61.63
2019-02-04T15:56:28.773Z,61.64
2019-02-04T15:58:57.590Z,61.97
2019-02-04T16:01:26.408Z,61.41
2019-02-04T16:03:55.257Z,62.40
2019-02-04T16:06:24.115Z,61.57
2019-02-04T16:08:52.883Z,61.67
2019-02-04T16:11:21.655Z,61.45
2019-02-04T16:13:50.448Z,61.12
2019-02-04T16:16:19.535Z,61.28
2019-02-04T16:18:48.439Z,61.94
2019-02-04T16:21:17.297Z,61.35
2019-02-04T16:23:46.272Z,61.26
2019-02-04T16:26:15.383Z,60.96
2019-02-04T16:28:44.359Z,61.20
2019-02-04T16:31:13.241Z,61.20
2019-02-04T16:33:42.006Z,61.05
2019-02-04T16:36:10.827Z,61.31
2019-02-04T16:38:39.832Z,60.99
2019-02-04T16:41:08.996Z,61.18
2019-02-04T16:43:38.154Z,61.18
2019-02-04T16:46:06.987Z,61.16
2019-02-04T16:48:35.857Z,60.66
2019-02-04T16:51:11.569Z,60.96
2019-02-04T16:53:35.189Z,61.39
2019-02-04T16:56:04.081Z,61.77
2019-02-04T16:58:32.978Z,61.76
2019-02-04T17:01:01.847Z,61.97
2019-02-04T17:03:31.289Z,61.81
2019-02-04T17:06:00.088Z,61.57
2019-02-04T17:08:29.320Z,61.25
2019-02-04T17:10:58.095Z,61.58
2019-02-04T17:13:26.882Z,61.56
2019-02-04T17:15:55.733Z,61.61
2019-02-04T17:18:24.499Z,61.93
2019-02-04T17:20:53.257Z,61.87
2019-02-04T17:23:22.852Z,62.23
2019-02-04T17:25:51.653Z,61.88
2019-02-04T17:28:20.434Z,62.44
2019-02-04T17:30:49.256Z,61.97
2019-02-04T17:33:18.311Z,62.05
2019-02-04T17:35:47.252Z,62.10
2019-02-04T17:38:16.033Z,62.28
2019-02-04T17:40:44.814Z,62.12
2019-02-04T17:43:13.688Z,61.75
2019-02-04T17:45:43.929Z,61.91
2019-02-04T17:48:12.748Z,61.78
2019-02-04T17:50:41.572Z,62.30
2019-02-04T17:53:10.521Z,62.23
2019-02-04T17:55:39.407Z,62.35
2019-02-04T17:58:08.271Z,62.52
2019-02-04T18:00:43.501Z,62.84
2019-02-04T18:03:12.329Z,62.57
2019-02-04T18:05:41.190Z,62.38
2019-02-04T18:08:10.159Z,61.69
2019-02-04T18:10:38.964Z,62.25
2019-02-04T18:13:07.778Z,62.45
2019-02-04T18:15:37.310Z,62.59
2019-02-04T18:18:06.184Z,62.95
2019-02-04T18:20:35.133Z,63.45
2019-02-04T18:23:06.346Z,63.11
2019-02-04T18:25:35.161Z,63.39
2019-02-04T18:28:04.002Z,63.08
2019-02-04T18:30:33.232Z,62.73
2019-02-04T18:33:02.015Z,62.81
2019-02-04T18:35:31.191Z,62.92
2019-02-04T18:38:00.313Z,62.76
2019-02-04T18:40:29.271Z,62.81
2019-02-04T18:42:58.473Z,62.51
2019-02-04T18:45:28.258Z,61.78
2019-02-04T18:47:57.125Z,61.98
2019-02-04T18:50:26.353Z,62.12
2019-02-04T18:52:55.174Z,62.22
2019-02-04T18:55:28.972Z,62.45
2019-02-04T18:57:57.840Z,62.15
2019-02-04T19:00:27.737Z,62.02
2019-02-04T19:02:56.563Z,61.51
2019-02-04T19:05:26.831Z,61.21
2019-02-04T19:07:55.815Z,61.33
2019-02-04T19:10:24.589Z,61.28
2019-02-04T19:12:53.458Z,60.68
2019-02-04T19:15:23.090Z,60.76
2019-02-04T19:17:53.667Z,60.69
2019-02-04T19:20:22.863Z,60.13
2019-02-04T19:22:51.755Z,60.56
2019-02-04T19:25:20.739Z,60.78
2019-02-04T19:27:49.716Z,60.45
2019-02-04T19:30:24.716Z,60.19
2019-02-04T19:32:54.057Z,60.08
2019-02-04T19:35:22.858Z,60.02
2019-02-04T19:37:51.901Z,60.15
2019-02-04T19:40:20.958Z,60.19
2019-02-04T19:42:49.735Z,59.54
2019-02-04T19:45:21.745Z,59.69
2019-02-04T19:47:50.964Z,59.20
2019-02-04T19:50:22.538Z,59.21
2019-02-04T19:52:51.651Z,59.08
2019-02-04T19:55:20.549Z,59.25
2019-02-04T19:57:50.065Z,59.23
2019-02-04T20:00:20.641Z,59.20
2019-02-04T20:02:49.886Z,59.04
2019-02-04T20:05:20.172Z,59.58
2019-02-04T20:07:49.042Z,59.01
2019-02-04T20:10:19.250Z,59.38
2019-02-04T20:12:48.863Z,59.39
2019-02-04T20:15:20.648Z,58.96
2019-02-04T20:17:51.089Z,59.04
2019-02-04T20:20:20.088Z,59.08
2019-02-04T20:22:48.959Z,58.61
2019-02-04T20:25:22.892Z,58.49
2019-02-04T20:27:52.149Z,59.15
2019-02-04T20:30:29.864Z,59.08
2019-02-04T20:33:00.163Z,59.37
2019-02-04T20:35:29.025Z,58.67
2019-02-04T20:37:58.150Z,58.38
2019-02-04T20:40:27.160Z,57.88
2019-02-04T20:42:55.963Z,57.90
2019-02-04T20:45:25.330Z,57.75
2019-02-04T20:47:54.176Z,57.92
2019-02-04T20:50:27.704Z,57.41
2019-02-04T20:52:56.572Z,58.01
2019-02-04T20:55:25.385Z,57.88
2019-02-04T20:57:54.267Z,57.43
2019-02-04T21:00:26.874Z,57.13
2019-02-04T21:02:55.615Z,57.53
2019-02-04T21:05:24.444Z,57.02
2019-02-04T21:07:53.247Z,56.90
2019-02-04T21:10:22.977Z,56.77
2019-02-04T21:12:52.026Z,57.19
2019-02-04T21:15:21.477Z,56.88
2019-02-04T21:17:50.618Z,57.60
2019-02-04T21:20:20.954Z,57.89
2019-02-04T21:22:49.869Z,57.17
2019-02-04T21:25:19.973Z,57.18
2019-02-04T21:27:49.076Z,56.85
2019-02-04T21:30:23.372Z,56.67
2019-02-04T21:32:52.313Z,57.11
2019-02-04T21:35:21.086Z,57.24
2019-02-04T21:37:52.201Z,57.23
2019-02-04T21:40:21.176Z,57.06
2019-02-04T21:42:51.216Z,56.75
2019-02-04T21:45:20.485Z,57.17
2019-02-04T21:47:49.298Z,57.04
2019-02-04T21:50:20.017Z,56.94
2019-02-04T21:52:48.883Z,56.74
2019-02-04T21:55:17.918Z,57.20
2019-02-04T21:57:46.926Z,57.15
2019-02-04T22:00:20.872Z,57.21
2019-02-04T22:02:50.915Z,57.12
2019-02-04T22:05:22.936Z,57.17
2019-02-04T22:07:51.732Z,57.71
2019-02-04T22:10:23.843Z,57.49
2019-02-04T22:12:53.000Z,57.55
2019-02-04T22:15:21.808Z,57.57
2019-02-04T22:17:51.499Z,57.54
2019-02-04T22:20:20.302Z,57.89
2019-02-04T22:22:49.140Z,57.54
2019-02-04T22:25:19.621Z,57.64
2019-02-04T22:27:49.287Z,57.65
2019-02-04T22:30:19.826Z,57.57
2019-02-04T22:32:48.689Z,57.93
2019-02-04T22:35:17.907Z,58.00
2019-02-04T22:37:47.324Z,58.40
2019-02-04T22:40:18.249Z,58.80
2019-02-04T22:42:47.020Z,59.07
2019-02-04T22:45:16.157Z,59.08
2019-02-04T22:47:44.996Z,59.24
2019-02-04T22:50:16.478Z,59.53
2019-02-04T22:52:45.257Z,59.82
2019-02-04T22:55:14.340Z,59.82
2019-02-04T22:57:43.097Z,60.07
2019-02-04T23:00:40.359Z,59.91
2019-02-04T23:03:09.141Z,60.45
2019-02-04T23:05:38.287Z,60.13
2019-02-04T23:08:07.257Z,59.96
2019-02-04T23:10:36.161Z,60.06
2019-02-04T23:13:06.998Z,60.08
2019-02-04T23:15:35.951Z,60.29
2019-02-04T23:18:04.921Z,60.21
2019-02-04T23:20:33.831Z,60.40
2019-02-04T23:23:03.398Z,60.52
2019-02-04T23:25:43.096Z,60.77
2019-02-04T23:28:04.804Z,60.89
2019-02-04T23:30:33.699Z,60.97
2019-02-04T23:33:03.067Z,60.51
2019-02-04T23:35:31.848Z,60.81
2019-02-04T23:38:00.676Z,60.83
2019-02-04T23:40:30.449Z,60.99
2019-02-04T23:42:59.217Z,61.44
2019-02-04T23:45:29.125Z,61.82
2019-02-04T23:47:58.835Z,61.57
2019-02-04T23:50:27.671Z,61.62
2019-02-04T23:52:56.547Z,61.38
2019-02-04T23:55:25.305Z,61.36
2019-02-04T23:57:54.180Z,61.22
